Time;durP1;ratioP1;P1;durP2;ratioP2;P2;SDS_P1;SDS_P2;PMS_P1;PMS_P2;Temp;Humidity;BMP_temperature;BMP_pressure;BME280_temperature;BME280_humidity;BME280_pressure;Samples;Min_cycle;Max_cycle;Signal;HPM_P1;HPM_P2
2023/03/27 00:01:19;;;;;;;2.92;0.60;;;19.50;56.90;;;;;;5036274;28;20439;-74
2023/03/27 00:03:48;;;;;;;2.22;0.50;;;19.40;56.90;;;;;;5053734;28;20115;-74
2023/03/27 00:06:17;;;;;;;2.70;0.90;;;19.50;56.90;;;;;;5054142;28;20098;-74
2023/03/27 00:08:46;;;;;;;2.78;0.57;;;19.40;56.80;;;;;;5036690;28;20090;-74
2023/03/27 00:11:12;;;;;;;2.45;0.60;;;19.40;56.80;;;;;;5035329;28;20057;-74
2023/03/27 00:13:38;;;;;;;4.63;0.60;;;19.40;56.90;;;;;;5054104;28;20040;-74
2023/03/27 00:16:04;;;;;;;1.95;0.55;;;19.40;56.80;;;;;;5054041;28;20396;-75
2023/03/27 00:18:30;;;;;;;1.33;0.50;;;19.40;56.80;;;;;;5035771;28;20048;-74
2023/03/27 00:20:57;;;;;;;2.55;0.60;;;19.40;56.80;;;;;;5054035;28;20044;-74
2023/03/27 00:23:23;;;;;;;3.90;0.80;;;19.40;56.90;;;;;;5036494;28;20142;-74
2023/03/27 00:25:49;;;;;;;1.10;0.40;;;19.40;56.80;;;;;;5035378;28;20036;-74
2023/03/27 00:28:19;;;;;;;3.05;0.50;;;19.40;56.80;;;;;;5053437;28;20051;-74
2023/03/27 00:30:46;;;;;;;1.98;0.60;;;19.40;56.80;;;;;;5036120;28;20037;-74
2023/03/27 00:33:11;;;;;;;1.77;0.60;;;19.30;56.70;;;;;;5052644;28;20394;-74
2023/03/27 00:35:37;;;;;;;2.20;0.52;;;19.30;56.70;;;;;;5054006;28;20071;-75
2023/03/27 00:38:02;;;;;;;1.88;0.50;;;19.30;56.70;;;;;;5035495;28;20044;-75
2023/03/27 00:40:28;;;;;;;2.63;0.55;;;19.30;56.70;;;;;;5053267;28;20047;-75
2023/03/27 00:42:56;;;;;;;3.80;0.60;;;19.30;56.70;;;;;;5036059;28;20052;-75
2023/03/27 00:45:23;;;;;;;;;;;19.30;56.60;;;;;;5054103;28;20115;-75
2023/03/27 00:47:55;;;;;;;2.05;0.65;;;19.30;56.60;;;;;;5053083;28;19966;-75
2023/03/27 00:50:23;;;;;;;2.55;0.60;;;19.30;56.70;;;;;;5035624;28;20095;-75
2023/03/27 00:52:52;;;;;;;0.98;0.47;;;19.20;56.60;;;;;;5052937;28;20094;-74
2023/03/27 00:55:18;;;;;;;1.27;0.45;;;19.20;56.60;;;;;;5018988;28;20086;-74
2023/03/27 00:57:45;;;;;;;3.47;0.65;;;19.30;56.70;;;;;;5019118;28;20047;-75
2023/03/27 01:00:13;;;;;;;3.10;0.57;;;19.30;56.60;;;;;;5034389;28;20037;-75
2023/03/27 01:02:42;;;;;;;2.50;0.50;;;19.20;56.60;;;;;;5036149;28;20051;-74
2023/03/27 01:05:08;;;;;;;2.28;0.50;;;19.30;56.70;;;;;;5035366;28;20045;-75
2023/03/27 01:07:34;;;;;;;2.33;0.75;;;19.20;56.60;;;;;;5018356;28;20186;-75
2023/03/27 01:10:00;;;;;;;2.47;0.68;;;19.20;56.60;;;;;;5034682;28;20091;-75
2023/03/27 01:12:55;;;;;;;2.35;0.40;;;19.20;56.60;;;;;;5053070;28;20093;-75
2023/03/27 01:15:29;;;;;;;1.48;0.50;;;19.20;56.60;;;;;;5034291;28;20041;-75
2023/03/27 01:18:22;;;;;;;1.73;0.77;;;19.20;56.60;;;;;;5052818;28;20443;-75
2023/03/27 01:21:06;;;;;;;1.63;0.60;;;19.20;56.50;;;;;;5052286;28;20037;-74
2023/03/27 01:23:35;;;;;;;2.60;0.65;;;19.20;56.50;;;;;;5052812;28;20098;-74
2023/03/27 01:26:21;;;;;;;2.22;0.70;;;19.10;56.50;;;;;;5052784;28;20092;-75
2023/03/27 01:29:09;;;;;;;2.20;0.60;;;19.10;57.10;;;;;;5052027;28;20393;-75
2023/03/27 01:32:05;;;;;;;2.97;0.63;;;19.20;56.60;;;;;;5018567;28;20400;-74
2023/03/27 01:34:52;;;;;;;1.83;0.65;;;19.10;56.50;;;;;;5035171;28;20052;-74
2023/03/27 01:37:36;;;;;;;2.10;0.45;;;19.10;56.50;;;;;;5034583;28;20164;-75
2023/03/27 01:40:06;;;;;;;1.50;0.40;;;19.10;56.50;;;;;;5034615;28;20045;-74
2023/03/27 01:43:00;;;;;;;2.00;0.40;;;19.10;56.50;;;;;;5034178;28;20049;-75
2023/03/27 01:45:50;;;;;;;4.53;0.57;;;19.10;56.40;;;;;;5055507;28;20063;-74
2023/03/27 01:48:24;;;;;;;3.33;0.40;;;19.00;56.40;;;;;;5044895;28;20052;-74
2023/03/27 01:50:52;;;;;;;2.33;0.52;;;19.10;56.50;;;;;;5037496;28;20048;-74
2023/03/27 01:53:28;;;;;;;1.80;0.52;;;19.00;56.40;;;;;;5054831;28;20059;-74
2023/03/27 01:56:25;;;;;;;2.42;0.47;;;19.00;56.40;;;;;;5053741;28;20120;-75
2023/03/27 01:58:54;;;;;;;1.98;0.50;;;19.10;56.40;;;;;;5038740;28;20052;-74
2023/03/27 02:01:22;;;;;;;2.42;0.43;;;19.00;56.40;;;;;;5020888;28;20044;-75
2023/03/27 02:03:49;;;;;;;2.40;0.45;;;19.00;56.40;;;;;;5053432;28;20079;-75
2023/03/27 02:06:28;;;;;;;1.50;0.47;;;19.10;56.50;;;;;;5028445;28;20098;-75
2023/03/27 02:09:00;;;;;;;1.45;0.47;;;19.10;56.50;;;;;;5034726;28;20110;-76
2023/03/27 02:11:28;;;;;;;2.25;0.40;;;19.10;56.50;;;;;;5030377;28;20077;-75
2023/03/27 02:14:00;;;;;;;2.25;1.05;;;19.10;56.40;;;;;;5031377;28;20061;-75
2023/03/27 02:16:32;;;;;;;0.77;0.40;;;19.10;56.40;;;;;;5014718;28;20129;-75
2023/03/27 02:19:01;;;;;;;1.85;0.50;;;19.10;56.40;;;;;;5014604;28;20056;-75
2023/03/27 02:21:30;;;;;;;2.42;0.40;;;19.10;56.40;;;;;;5034031;28;20469;-75
2023/03/27 02:23:56;;;;;;;2.88;0.50;;;19.10;56.40;;;;;;5035121;28;20471;-75
2023/03/27 02:26:21;;;;;;;1.70;0.40;;;19.10;56.40;;;;;;5034209;28;20493;-75
2023/03/27 02:29:00;;;;;;;2.08;0.40;;;19.10;56.40;;;;;;5035345;28;20473;-75
2023/03/27 02:32:01;;;;;;;1.67;0.40;;;19.10;56.40;;;;;;5034133;28;20136;-74
2023/03/27 02:34:48;;;;;;;2.55;0.50;;;19.10;56.40;;;;;;5036177;28;20168;-75
2023/03/27 02:37:28;;;;;;;3.85;0.50;;;19.10;56.40;;;;;;5018290;28;20053;-75
2023/03/27 02:40:14;;;;;;;2.60;0.52;;;19.20;56.40;;;;;;5034018;28;20049;-75
2023/03/27 02:43:11;;;;;;;1.88;0.50;;;19.20;56.40;;;;;;5035415;28;20033;-75
2023/03/27 02:45:45;;;;;;;1.60;0.57;;;19.20;56.40;;;;;;5028153;28;20050;-75
2023/03/27 02:48:14;;;;;;;1.95;0.47;;;19.20;56.40;;;;;;5034523;28;20094;-75
2023/03/27 02:51:00;;;;;;;1.58;0.30;;;19.20;56.40;;;;;;5036017;28;20053;-75
2023/03/27 02:53:25;;;;;;;1.90;0.45;;;19.20;56.30;;;;;;5034192;28;20081;-75
2023/03/27 02:55:58;;;;;;;1.77;0.40;;;19.20;56.30;;;;;;5034742;28;20117;-75
2023/03/27 02:58:48;;;;;;;1.83;0.50;;;19.30;56.30;;;;;;5034750;28;20053;-75
2023/03/27 03:01:16;;;;;;;2.25;0.50;;;19.30;56.30;;;;;;5014713;28;20115;-75
2023/03/27 03:03:52;;;;;;;1.08;0.30;;;19.30;56.30;;;;;;5034446;28;20080;-75
2023/03/27 03:06:21;;;;;;;1.75;0.40;;;19.30;56.20;;;;;;5017807;28;20552;-75
2023/03/27 03:08:47;;;;;;;2.10;0.50;;;19.30;56.20;;;;;;5035603;28;20103;-75
2023/03/27 03:11:13;;;;;;;2.08;0.30;;;19.30;56.20;;;;;;5034013;28;20488;-75
2023/03/27 03:13:40;;;;;;;2.85;0.43;;;19.40;56.30;;;;;;5017213;28;20049;-75
2023/03/27 03:16:07;;;;;;;1.80;0.40;;;19.40;56.30;;;;;;5034187;28;20041;-75
2023/03/27 03:18:33;;;;;;;1.03;0.37;;;19.40;56.30;;;;;;5034457;28;20115;-76
2023/03/27 03:20:58;;;;;;;1.60;0.40;;;19.40;56.20;;;;;;5034106;28;20099;-75
2023/03/27 03:23:25;;;;;;;1.90;0.50;;;19.40;56.20;;;;;;5035097;28;20397;-75
2023/03/27 03:25:51;;;;;;;1.50;0.40;;;19.40;56.20;;;;;;5035364;28;20116;-75
2023/03/27 03:28:17;;;;;;;1.73;0.40;;;19.50;56.20;;;;;;5034459;28;20053;-75
2023/03/27 03:30:46;;;;;;;1.30;0.30;;;19.50;56.20;;;;;;5035359;28;20041;-75
2023/03/27 03:33:13;;;;;;;0.90;0.40;;;19.50;56.20;;;;;;5053993;28;20501;-75
2023/03/27 03:35:39;;;;;;;1.15;0.47;;;19.50;56.10;;;;;;5053975;28;20088;-75
2023/03/27 03:38:05;;;;;;;1.25;0.40;;;19.50;56.10;;;;;;5054217;28;20401;-75
2023/03/27 03:40:30;;;;;;;2.95;0.70;;;19.50;56.10;;;;;;5053548;28;20041;-75
2023/03/27 03:42:56;;;;;;;2.20;0.40;;;19.50;56.00;;;;;;5053941;28;20514;-75
2023/03/27 03:45:22;;;;;;;2.10;0.40;;;19.60;56.10;;;;;;5053559;28;20051;-75
2023/03/27 03:47:48;;;;;;;1.05;0.40;;;19.60;56.10;;;;;;5053144;28;20041;-75
2023/03/27 03:50:13;;;;;;;1.13;0.38;;;19.60;56.00;;;;;;5053470;28;20045;-75
2023/03/27 03:52:39;;;;;;;1.58;0.32;;;19.60;56.00;;;;;;5054590;28;20362;-75
2023/03/27 03:55:06;;;;;;;1.73;0.30;;;19.70;56.10;;;;;;5054660;28;20041;-75
2023/03/27 03:57:31;;;;;;;0.70;0.30;;;19.60;56.00;;;;;;5053840;28;20041;-75
2023/03/27 03:59:57;;;;;;;2.55;0.40;;;19.70;56.70;;;;;;5054390;28;20041;-75
2023/03/27 04:02:27;;;;;;;1.38;0.40;;;19.70;56.00;;;;;;5052453;28;20076;-75
2023/03/27 04:04:56;;;;;;;1.50;0.43;;;19.70;55.90;;;;;;5053182;28;20400;-75
2023/03/27 04:07:22;;;;;;;1.33;0.25;;;19.70;55.90;;;;;;5041637;28;20041;-75
2023/03/27 04:09:49;;;;;;;0.95;0.32;;;19.70;55.90;;;;;;5048859;28;20884;-75
2023/03/27 04:12:15;;;;;;;2.42;0.50;;;19.70;55.90;;;;;;5047960;28;20092;-76
2023/03/27 04:14:41;;;;;;;1.30;0.40;;;19.70;55.90;;;;;;5036315;28;20048;-75
2023/03/27 04:17:06;;;;;;;1.05;0.30;;;19.70;55.80;;;;;;5035310;28;20048;-75
2023/03/27 04:19:32;;;;;;;1.08;0.40;;;19.70;55.80;;;;;;5054382;28;20076;-75
2023/03/27 04:22:01;;;;;;;1.73;0.40;;;19.70;55.80;;;;;;5035953;28;20365;-75
2023/03/27 04:24:29;;;;;;;1.60;0.50;;;19.70;55.80;;;;;;5035473;28;20053;-75
2023/03/27 04:26:59;;;;;;;;;;;19.80;55.80;;;;;;5054649;28;20033;-75
2023/03/27 04:29:33;;;;;;;2.03;0.40;;;19.80;55.80;;;;;;5054528;28;19927;-75
2023/03/27 04:31:58;;;;;;;1.00;0.20;;;19.80;55.80;;;;;;5051601;28;20040;-75
2023/03/27 04:34:24;;;;;;;1.15;0.25;;;19.80;55.80;;;;;;5054117;28;20086;-75
2023/03/27 04:36:50;;;;;;;1.55;0.40;;;19.80;55.80;;;;;;5035666;28;20033;-75
2023/03/27 04:39:16;;;;;;;1.83;0.30;;;19.80;55.70;;;;;;5052741;28;20086;-75
2023/03/27 04:41:48;;;;;;;1.92;0.40;;;19.80;55.70;;;;;;5035675;28;20496;-75
2023/03/27 04:44:16;;;;;;;1.52;0.30;;;19.80;55.70;;;;;;5034911;28;20572;-75
2023/03/27 04:46:48;;;;;;;0.77;0.30;;;19.80;55.60;;;;;;5052751;28;20602;-75
2023/03/27 04:49:17;;;;;;;3.70;0.45;;;19.80;55.60;;;;;;5053499;28;20143;-75
2023/03/27 04:51:44;;;;;;;2.00;0.32;;;19.80;55.60;;;;;;5034769;28;20068;-75
2023/03/27 04:54:10;;;;;;;0.98;0.30;;;19.80;55.50;;;;;;5053293;28;20072;-75
2023/03/27 04:56:35;;;;;;;0.98;0.30;;;19.80;55.50;;;;;;5053462;28;20126;-75
2023/03/27 04:59:04;;;;;;;2.15;0.35;;;19.80;55.50;;;;;;5034591;28;20041;-75
2023/03/27 05:01:30;;;;;;;0.73;0.30;;;19.90;55.50;;;;;;5035514;28;20041;-75
2023/03/27 05:03:55;;;;;;;1.75;0.40;;;19.90;55.60;;;;;;5053420;28;20498;-75
2023/03/27 05:06:22;;;;;;;1.38;0.30;;;19.90;55.60;;;;;;5052313;28;20033;-75
2023/03/27 05:08:47;;;;;;;1.65;0.40;;;19.90;55.60;;;;;;5053446;28;20055;-75
2023/03/27 05:11:13;;;;;;;0.95;0.30;;;19.90;55.50;;;;;;5052784;28;20045;-75
2023/03/27 05:13:38;;;;;;;1.55;0.60;;;19.90;55.50;;;;;;5052384;28;20563;-75
2023/03/27 05:16:04;;;;;;;0.30;0.10;;;19.90;55.50;;;;;;5034837;28;20132;-75
2023/03/27 05:18:30;;;;;;;2.15;0.40;;;19.90;55.40;;;;;;5053273;28;20063;-75
2023/03/27 05:20:57;;;;;;;1.73;0.30;;;19.90;55.40;;;;;;5034091;28;20476;-75
2023/03/27 05:23:23;;;;;;;0.80;0.30;;;19.90;55.40;;;;;;5034280;28;20037;-75
2023/03/27 05:25:49;;;;;;;1.40;0.30;;;19.90;55.40;;;;;;5034807;28;20554;-75
2023/03/27 05:28:15;;;;;;;0.82;0.30;;;19.90;55.40;;;;;;5051567;28;20045;-75
2023/03/27 05:30:41;;;;;;;1.65;0.20;;;19.90;55.30;;;;;;5053100;28;20055;-75
2023/03/27 05:33:06;;;;;;;1.60;0.35;;;19.90;55.30;;;;;;5052418;28;20132;-75
2023/03/27 05:35:33;;;;;;;1.65;0.40;;;19.90;55.30;;;;;;5034178;28;20454;-75
2023/03/27 05:37:58;;;;;;;1.40;0.57;;;19.90;55.30;;;;;;5034697;28;20041;-74
2023/03/27 05:40:24;;;;;;;0.98;0.22;;;19.90;55.30;;;;;;5052677;28;20454;-74
2023/03/27 05:42:50;;;;;;;2.20;0.30;;;20.00;55.30;;;;;;5034049;28;20053;-74
2023/03/27 05:45:16;;;;;;;2.78;0.30;;;20.00;55.30;;;;;;5052559;28;20079;-74
2023/03/27 05:47:55;;;;;;;1.45;0.25;;;20.00;55.30;;;;;;5034981;28;20056;-75
2023/03/27 05:50:27;;;;;;;0.82;0.30;;;20.00;55.30;;;;;;5034039;28;20467;-74
2023/03/27 05:53:03;;;;;;;1.65;0.30;;;20.00;55.20;;;;;;5052817;28;20052;-74
2023/03/27 05:55:29;;;;;;;0.95;0.30;;;20.00;55.20;;;;;;5033699;28;20057;-74
2023/03/27 05:57:54;;;;;;;1.15;0.40;;;20.00;55.20;;;;;;5052289;28;20566;-75
2023/03/27 06:00:24;;;;;;;1.30;0.40;;;20.00;55.10;;;;;;5052528;28;20115;-75
2023/03/27 06:02:53;;;;;;;0.40;0.30;;;20.00;55.10;;;;;;5033997;28;20063;-75
2023/03/27 06:05:18;;;;;;;2.05;0.40;;;20.00;55.10;;;;;;5051789;28;20350;-75
2023/03/27 06:07:45;;;;;;;0.52;0.30;;;20.00;55.10;;;;;;5052283;28;20051;-75
2023/03/27 06:10:13;;;;;;;0.90;0.22;;;20.00;55.10;;;;;;5033688;28;20041;-75
2023/03/27 06:12:38;;;;;;;1.52;0.30;;;20.00;55.10;;;;;;5052136;28;20106;-75
2023/03/27 06:15:06;;;;;;;0.90;0.35;;;20.00;55.10;;;;;;5050644;28;20048;-76
2023/03/27 06:17:33;;;;;;;1.42;0.35;;;20.00;55.10;;;;;;5051554;28;20128;-75
2023/03/27 06:19:58;;;;;;;1.77;0.30;;;20.00;55.10;;;;;;5051907;28;20132;-75
2023/03/27 06:22:27;;;;;;;0.95;0.40;;;20.00;55.10;;;;;;5034330;28;20041;-74
2023/03/27 06:24:53;;;;;;;1.38;0.32;;;20.00;55.10;;;;;;5051633;28;20049;-75
2023/03/27 06:27:19;;;;;;;1.25;0.20;;;20.00;55.10;;;;;;5051844;28;20051;-75
2023/03/27 06:29:46;;;;;;;1.17;0.38;;;20.00;55.00;;;;;;5034594;28;20044;-74
2023/03/27 06:32:12;;;;;;;1.02;0.30;;;20.00;55.00;;;;;;5051101;28;20110;-75
2023/03/27 06:34:37;;;;;;;1.33;0.40;;;20.00;55.00;;;;;;5034059;28;20061;-76
2023/03/27 06:37:04;;;;;;;2.00;0.40;;;20.00;55.00;;;;;;5051835;28;20048;-75
2023/03/27 06:39:29;;;;;;;2.17;0.30;;;20.00;55.00;;;;;;5050102;28;20049;-75
2023/03/27 06:41:55;;;;;;;1.15;0.40;;;20.00;54.90;;;;;;5052207;28;20124;-75
2023/03/27 06:44:21;;;;;;;3.08;0.30;;;20.10;54.90;;;;;;5033468;28;20045;-76
2023/03/27 06:46:47;;;;;;;1.38;0.50;;;20.10;54.90;;;;;;5051947;28;20476;-76
2023/03/27 06:49:13;;;;;;;1.65;0.30;;;20.10;54.90;;;;;;5051935;28;20045;-76
2023/03/27 06:51:38;;;;;;;4.43;0.50;;;20.10;54.90;;;;;;5033559;28;20049;-76
2023/03/27 06:54:04;;;;;;;0.57;0.20;;;20.10;55.00;;;;;;5051547;28;20400;-76
2023/03/27 06:56:30;;;;;;;2.08;0.35;;;20.10;55.00;;;;;;5052148;28;20052;-76
2023/03/27 06:58:55;;;;;;;3.55;0.30;;;20.10;55.00;;;;;;5033219;28;20044;-75
2023/03/27 07:01:21;;;;;;;2.90;0.40;;;20.10;55.00;;;;;;5051820;28;20124;-75
2023/03/27 07:03:47;;;;;;;0.68;0.25;;;20.10;55.00;;;;;;5051740;28;20043;-77
2023/03/27 07:06:13;;;;;;;2.13;0.40;;;20.10;55.00;;;;;;5051194;28;20048;-76
2023/03/27 07:08:38;;;;;;;3.50;0.40;;;20.20;55.20;;;;;;5037886;28;20045;-76
2023/03/27 07:11:04;;;;;;;1.30;0.40;;;20.20;55.30;;;;;;5058616;28;20403;-75
2023/03/27 07:13:30;;;;;;;3.15;0.30;;;20.20;55.40;;;;;;5064469;28;20068;-76
2023/03/27 07:15:56;;;;;;;1.77;0.40;;;20.20;55.40;;;;;;5055285;28;20499;-76
2023/03/27 07:18:21;;;;;;;1.70;0.47;;;20.20;55.50;;;;;;5036989;28;20120;-77
2023/03/27 07:20:49;;;;;;;1.70;0.30;;;20.20;55.60;;;;;;5054650;28;20044;-76
2023/03/27 07:23:14;;;;;;;3.50;0.40;;;20.20;55.60;;;;;;5037145;28;20417;-77
2023/03/27 07:25:40;;;;;;;2.08;0.40;;;20.30;55.70;;;;;;5057144;28;20485;-76
2023/03/27 07:28:08;;;;;;;2.20;0.30;;;20.20;55.60;;;;;;5042575;28;20374;-77
2023/03/27 07:30:34;;;;;;;;;;;20.20;55.70;;;;;;5060834;28;20131;-77
2023/03/27 07:33:00;;;;;;;3.22;0.40;;;20.30;55.80;;;;;;5051445;28;20015;-74
2023/03/27 07:35:26;;;;;;;1.10;0.30;;;20.30;55.80;;;;;;5054247;28;20076;-73
2023/03/27 07:37:52;;;;;;;3.08;0.50;;;20.30;55.80;;;;;;5055102;28;20072;-74
2023/03/27 07:40:21;;;;;;;2.20;0.50;;;20.30;55.70;;;;;;5036988;28;20041;-74
2023/03/27 07:42:47;;;;;;;;;;;20.30;55.60;;;;;;5036972;28;20041;-72
2023/03/27 07:45:15;;;;;;;2.10;0.32;;;20.30;55.70;;;;;;5054625;28;20020;-74
2023/03/27 07:47:41;;;;;;;3.22;0.55;;;20.30;55.60;;;;;;5054139;28;20090;-73
2023/03/27 07:50:09;;;;;;;2.75;0.40;;;20.30;55.60;;;;;;5054186;28;20053;-73
2023/03/27 07:52:35;;;;;;;1.92;0.80;;;20.30;55.70;;;;;;5053488;28;20404;-70
2023/03/27 07:55:02;;;;;;;2.65;0.47;;;20.30;55.80;;;;;;5072460;28;20399;-73
2023/03/27 07:57:28;;;;;;;2.40;0.60;;;20.30;55.80;;;;;;5066133;28;20094;-66
2023/03/27 07:59:56;;;;;;;4.43;0.50;;;20.30;55.80;;;;;;5073154;28;20041;-73
2023/03/27 08:02:22;;;;;;;1.70;0.40;;;20.30;55.80;;;;;;5048427;28;20087;-73
2023/03/27 08:04:47;;;;;;;3.78;0.57;;;20.30;55.80;;;;;;5073178;28;20048;-73
2023/03/27 08:07:13;;;;;;;3.78;0.40;;;20.30;55.60;;;;;;5068268;28;20064;-73
2023/03/27 08:09:39;;;;;;;2.92;0.60;;;20.30;55.60;;;;;;5035419;28;20400;-73
2023/03/27 08:12:06;;;;;;;1.92;0.38;;;20.30;55.50;;;;;;5053742;28;20055;-73
2023/03/27 08:14:32;;;;;;;4.20;0.52;;;20.40;55.60;;;;;;5054510;28;20064;-73
2023/03/27 08:16:58;;;;;;;4.93;0.43;;;20.40;55.60;;;;;;5035298;28;20041;-73
2023/03/27 08:19:24;;;;;;;5.90;0.60;;;20.40;55.60;;;;;;5053396;28;20493;-72
2023/03/27 08:21:49;;;;;;;1.27;0.32;;;20.40;55.60;;;;;;5054028;28;20401;-74
2023/03/27 08:24:15;;;;;;;2.70;0.45;;;20.40;55.60;;;;;;5052977;28;20052;-73
2023/03/27 08:26:41;;;;;;;3.88;0.50;;;20.40;55.60;;;;;;5054133;28;20118;-75
2023/03/27 08:29:07;;;;;;;1.83;0.68;;;20.40;55.50;;;;;;5073326;28;20051;-75
2023/03/27 08:31:33;;;;;;;2.53;0.45;;;20.40;55.50;;;;;;5073194;28;20040;-74
2023/03/27 08:33:58;;;;;;;2.70;0.43;;;20.50;55.40;;;;;;5073462;28;20384;-74
2023/03/27 08:36:24;;;;;;;1.45;0.45;;;20.50;55.40;;;;;;5055486;28;20044;-73
2023/03/27 08:38:50;;;;;;;1.52;0.50;;;20.50;55.30;;;;;;5072963;28;20157;-72
2023/03/27 08:41:25;;;;;;;2.08;0.47;;;20.50;55.30;;;;;;5067365;28;20041;-72
2023/03/27 08:43:50;;;;;;;2.38;0.50;;;20.50;55.20;;;;;;5021782;28;20105;-72
2023/03/27 08:46:20;;;;;;;3.97;0.60;;;20.50;55.20;;;;;;5055433;28;20052;-72
2023/03/27 08:49:05;;;;;;;2.17;0.40;;;20.40;55.10;;;;;;5039041;28;20045;-72
2023/03/27 08:51:59;;;;;;;1.90;0.30;;;20.40;54.90;;;;;;5054910;28;20048;-72
2023/03/27 08:54:27;;;;;;;2.72;0.30;;;20.40;55.00;;;;;;5055478;28;20071;-73
2023/03/27 08:56:53;;;;;;;;;;;20.30;55.00;;;;;;5073902;28;20052;-72
2023/03/27 08:59:20;;;;;;;2.38;0.40;;;20.30;54.90;;;;;;5071880;28;19927;-72
2023/03/27 09:02:15;;;;;;;1.30;0.30;;;20.30;55.00;;;;;;5039246;28;20040;-72
2023/03/27 09:04:55;;;;;;;3.03;0.50;;;20.30;54.80;;;;;;5030788;28;20048;-73
2023/03/27 09:07:49;;;;;;;3.35;0.82;;;20.40;54.90;;;;;;5056034;28;20047;-72
2023/03/27 09:10:20;;;;;;;1.42;0.38;;;20.30;54.80;;;;;;5055057;28;20508;-72
2023/03/27 09:13:10;;;;;;;1.58;0.40;;;20.30;54.80;;;;;;5031979;28;20098;-71
2023/03/27 09:16:13;;;;;;;3.85;0.40;;;20.40;54.90;;;;;;5053017;28;20049;-72
2023/03/27 09:18:45;;;;;;;2.08;0.43;;;20.40;54.90;;;;;;4968587;28;20046;-73
2023/03/27 09:21:16;;;;;;;4.45;0.50;;;20.40;55.00;;;;;;5028647;28;20080;-73
2023/03/27 09:23:45;;;;;;;2.55;0.40;;;20.40;54.90;;;;;;5031785;28;20123;-72
2023/03/27 09:26:13;;;;;;;1.80;0.60;;;20.40;54.90;;;;;;5054055;28;20538;-73
2023/03/27 09:28:50;;;;;;;3.35;0.40;;;20.40;54.90;;;;;;5055068;28;20052;-73
2023/03/27 09:31:26;;;;;;;2.95;0.60;;;20.40;54.90;;;;;;5054586;28;20040;-73
2023/03/27 09:33:52;;;;;;;1.98;0.40;;;20.40;54.90;;;;;;5071814;28;20047;-72
2023/03/27 09:36:17;;;;;;;1.60;0.30;;;20.40;54.90;;;;;;5038010;28;20044;-73
2023/03/27 09:38:49;;;;;;;1.30;0.40;;;20.40;54.80;;;;;;5054820;28;20115;-72
2023/03/27 09:41:26;;;;;;;2.17;0.32;;;20.40;54.70;;;;;;5071533;28;20607;-73
2023/03/27 09:44:05;;;;;;;2.83;0.40;;;20.50;54.90;;;;;;5054776;28;20079;-73
2023/03/27 09:46:31;;;;;;;1.65;0.40;;;20.50;54.70;;;;;;5023308;28;20053;-73
2023/03/27 09:48:56;;;;;;;2.47;0.40;;;20.50;54.70;;;;;;5020762;28;20094;-73
2023/03/27 09:51:39;;;;;;;2.50;0.50;;;20.50;54.70;;;;;;5054477;28;20043;-72
2023/03/27 09:54:05;;;;;;;2.72;0.40;;;20.50;54.60;;;;;;5071673;28;20113;-72
2023/03/27 09:56:37;;;;;;;2.00;0.50;;;20.40;54.70;;;;;;5072408;28;20419;-72
2023/03/27 09:59:08;;;;;;;2.88;0.45;;;20.50;54.50;;;;;;5053659;28;20037;-71
2023/03/27 10:01:34;;;;;;;3.30;0.40;;;20.50;54.30;;;;;;5054115;28;20066;-72
2023/03/27 10:04:00;;;;;;;2.00;0.38;;;20.40;54.20;;;;;;5072037;28;20087;-73
2023/03/27 10:06:30;;;;;;;1.95;0.40;;;20.40;54.20;;;;;;5054802;28;20076;-72
2023/03/27 10:08:59;;;;;;;1.63;0.30;;;20.40;54.20;;;;;;5071131;28;20454;-70
2023/03/27 10:11:27;;;;;;;2.05;0.40;;;20.40;54.00;;;;;;5072326;28;20056;-72
2023/03/27 10:13:52;;;;;;;1.35;0.40;;;20.40;54.00;;;;;;5072377;28;20053;-72
2023/03/27 10:16:19;;;;;;;2.67;0.73;;;20.40;54.00;;;;;;5053699;28;20090;-73
2023/03/27 10:18:51;;;;;;;3.60;0.40;;;20.40;53.80;;;;;;5047349;28;20529;-72
2023/03/27 10:21:32;;;;;;;2.95;0.63;;;20.40;53.60;;;;;;5061464;28;20052;-73
2023/03/27 10:24:03;;;;;;;2.50;0.40;;;20.40;53.50;;;;;;5047317;28;20464;-78
2023/03/27 10:26:30;;;;;;;5.18;0.43;;;20.40;53.60;;;;;;5050715;28;20052;-77
2023/03/27 10:29:05;;;;;;;4.70;0.60;;;20.40;53.50;;;;;;5066854;28;20069;-75
2023/03/27 10:31:33;;;;;;;3.78;0.60;;;20.40;53.60;;;;;;5060270;28;20041;-75
2023/03/27 10:34:00;;;;;;;2.55;0.50;;;20.40;53.70;;;;;;5061019;28;20044;-76
2023/03/27 10:36:26;;;;;;;1.63;0.47;;;20.40;53.80;;;;;;5049752;28;20048;-72
2023/03/27 10:38:59;;;;;;;2.67;0.60;;;20.40;53.70;;;;;;5061188;28;20319;-68
2023/03/27 10:41:25;;;;;;;3.05;0.40;;;20.40;53.70;;;;;;5035278;28;20188;-74
2023/03/27 10:43:51;;;;;;;4.05;0.52;;;20.40;53.60;;;;;;5020689;28;20059;-74
2023/03/27 10:46:27;;;;;;;3.22;0.70;;;20.40;53.50;;;;;;5055717;28;20446;-74
2023/03/27 10:49:14;;;;;;;4.43;0.50;;;20.40;53.50;;;;;;5037671;28;20408;-75
2023/03/27 10:51:58;;;;;;;3.13;0.63;;;20.40;53.50;;;;;;5036563;28;20075;-74
2023/03/27 10:54:53;;;;;;;2.58;0.40;;;20.40;53.50;;;;;;5038200;28;20119;-73
2023/03/27 10:57:33;;;;;;;2.67;0.50;;;20.40;53.60;;;;;;5037503;28;20076;-74
2023/03/27 11:00:18;;;;;;;3.78;0.55;;;20.40;53.60;;;;;;5048468;28;20083;-74
2023/03/27 11:02:56;;;;;;;4.25;0.80;;;20.40;53.30;;;;;;5055508;28;20074;-75
2023/03/27 11:05:33;;;;;;;3.60;0.68;;;20.40;53.20;;;;;;5052834;28;20055;-74
2023/03/27 11:08:04;;;;;;;2.00;0.63;;;20.40;53.00;;;;;;5037104;28;20036;-75
2023/03/27 11:10:41;;;;;;;4.15;0.43;;;20.40;53.00;;;;;;5054119;28;20036;-74
2023/03/27 11:13:19;;;;;;;4.40;0.50;;;20.30;52.60;;;;;;5036942;28;20071;-73
2023/03/27 11:15:46;;;;;;;4.05;0.40;;;20.30;52.70;;;;;;5047538;28;20048;-71
2023/03/27 11:18:14;;;;;;;4.05;0.60;;;20.30;52.90;;;;;;5052822;28;20071;-76
2023/03/27 11:20:46;;;;;;;3.05;0.52;;;20.30;53.00;;;;;;5029382;28;20132;-79
2023/03/27 11:23:42;;;;;;;2.67;0.40;;;20.30;53.10;;;;;;5047537;28;20060;-76
2023/03/27 11:26:09;;;;;;;5.07;0.80;;;20.30;53.20;;;;;;5032954;28;20091;-78
2023/03/27 11:28:47;;;;;;;3.75;0.63;;;20.30;53.30;;;;;;5054503;28;20087;-76
2023/03/27 11:31:36;;;;;;;3.70;0.60;;;20.30;53.50;;;;;;5037321;28;20492;-75
2023/03/27 11:34:21;;;;;;;2.65;0.50;;;20.30;53.70;;;;;;5035562;28;20048;-77
2023/03/27 11:36:48;;;;;;;2.05;0.40;;;20.40;53.70;;;;;;5065415;28;20037;-77
2023/03/27 11:39:28;;;;;;;3.58;0.40;;;20.40;53.70;;;;;;5072017;28;20060;-72
2023/03/27 11:41:59;;;;;;;1.02;0.40;;;20.40;53.90;;;;;;5056473;28;20052;-73
2023/03/27 11:44:25;;;;;;;3.83;0.85;;;20.40;53.70;;;;;;5040607;28;20070;-73
2023/03/27 11:47:15;;;;;;;2.50;0.40;;;20.40;53.30;;;;;;5056149;28;20466;-72
2023/03/27 11:50:07;;;;;;;2.25;0.50;;;20.40;53.10;;;;;;5074860;28;20037;-72
2023/03/27 11:52:51;;;;;;;2.25;0.30;;;20.40;52.90;;;;;;5043195;28;20032;-72
2023/03/27 11:55:45;;;;;;;3.35;0.47;;;20.40;52.90;;;;;;5073461;28;20049;-71
2023/03/27 11:58:25;;;;;;;2.17;0.30;;;20.40;52.80;;;;;;5040675;28;20051;-72
2023/03/27 12:01:20;;;;;;;1.30;0.40;;;20.40;52.90;;;;;;5024785;28;20098;-72
2023/03/27 12:04:02;;;;;;;3.78;0.32;;;20.40;52.90;;;;;;5056485;28;20503;-72
2023/03/27 12:06:44;;;;;;;4.07;0.43;;;20.40;52.80;;;;;;5040425;28;20079;-72
2023/03/27 12:09:14;;;;;;;2.40;0.70;;;20.30;52.90;;;;;;5072910;28;20545;-70
2023/03/27 12:11:56;;;;;;;1.75;0.40;;;20.30;52.80;;;;;;5056466;28;20144;-71
2023/03/27 12:14:51;;;;;;;2.75;0.50;;;20.30;52.70;;;;;;5040103;28;20056;-74
2023/03/27 12:17:17;;;;;;;3.05;0.50;;;20.40;52.80;;;;;;5041994;28;20075;-75
2023/03/27 12:19:57;;;;;;;2.72;0.50;;;20.40;52.80;;;;;;5073589;28;20447;-75
2023/03/27 12:22:31;;;;;;;4.97;0.60;;;20.40;52.60;;;;;;5074379;28;20044;-77
2023/03/27 12:25:16;;;;;;;3.95;0.50;;;20.40;52.40;;;;;;5049277;28;20381;-73
2023/03/27 12:28:03;;;;;;;3.90;0.70;;;20.40;52.00;;;;;;5051996;28;20021;-76
2023/03/27 12:30:46;;;;;;;5.13;0.77;;;20.40;52.00;;;;;;5049416;28;20063;-75
2023/03/27 12:33:48;;;;;;;6.63;0.88;;;20.40;52.00;;;;;;5036744;28;20123;-77
2023/03/27 12:36:17;;;;;;;4.57;0.55;;;20.30;51.80;;;;;;4993535;28;20053;-77
2023/03/27 12:38:42;;;;;;;;;;;20.30;51.90;;;;;;5029731;28;20517;-78
2023/03/27 12:41:11;;;;;;;4.88;0.70;;;20.30;51.90;;;;;;5041208;28;19968;-73
2023/03/27 12:43:42;;;;;;;4.78;0.70;;;20.30;52.10;;;;;;5045001;28;20040;-73
2023/03/27 12:46:13;;;;;;;5.40;0.70;;;20.30;52.10;;;;;;5030452;28;20044;-72
2023/03/27 12:49:07;;;;;;;7.18;0.70;;;20.30;52.10;;;;;;5046070;28;20047;-73
2023/03/27 12:51:49;;;;;;;5.32;0.75;;;20.30;52.00;;;;;;5061903;28;20087;-74
2023/03/27 12:54:18;;;;;;;4.53;0.73;;;20.30;52.20;;;;;;5051090;28;20052;-75
2023/03/27 12:56:57;;;;;;;9.18;0.90;;;20.30;52.20;;;;;;5062684;28;20057;-75
2023/03/27 12:59:25;;;;;;;5.30;0.63;;;20.30;52.20;;;;;;5062371;28;20049;-75
2023/03/27 13:02:16;;;;;;;5.07;0.60;;;20.30;52.20;;;;;;5052055;28;20051;-75
2023/03/27 13:04:47;;;;;;;5.90;0.75;;;20.40;52.10;;;;;;5034011;28;20115;-77
2023/03/27 13:07:56;;;;;;;2.60;0.90;;;20.40;52.10;;;;;;5062071;28;20048;-74
2023/03/27 13:10:33;;;;;;;6.10;0.93;;;20.40;51.90;;;;;;5032176;28;20125;-72